Daily Weather Observations for Burdell (Townsville)
For Sunday 3rd February 2019

This table is designed for ease of comparison to Bureau of Meteorology recorded weather data.

Station Details Name: BURDELL Lat: -19.24 Lon: 146.69 Height: 8.5 m
Date/Time
EST
Temp
°C
App
Temp
°C
Dew
Point
°C
Rel
Hum
%
Delta-T
°C
Wind Press
QNH
hPa
Press
MSL
hPa
Rain since
9am
mm
Dir  Spd
km/h
Gust
km/h
Spd
kts
Gust
kts
03/11:30pm 23.4 24.2 23.4 100 0.0 SE 28 37 15 20 1001.9 1001.9 177.6
03/11:00pm 23.5 24.7 23.5 100 0.0 SE 28 34 15 18 1002.1 1002.1 172.5
03/10:30pm 23.6 23.0 23.6 100 0.0 SE 34 50 18 27 1002.0 1002.0 168.4
03/10:00pm 24.2 24.5 24.2 100 -0.0 SE 31 50 17 27 1002.1 1002.1 163.1
03/09:30pm 24.3 25.0 24.3 100 -0.0 SE 30 42 16 23 1001.5 1001.5 158.8
03/09:00pm 24.2 26.4 24.2 100 0.0 SE 20 29 11 16 1001.1 1001.1 153.4
03/08:30pm 24.2 25.4 24.2 100 0.0 SE 28 37 15 20 1001.1 1001.1 150.1
03/08:00pm 24.1 24.7 24.1 100 0.0 SE 30 39 16 21 1000.9 1000.9 139.5
03/07:30pm 24.2 25.2 24.2 100 -0.0 SE 27 42 15 23 1000.9 1000.9 120.4
03/07:00pm 24.5 25.9 24.5 100 -0.0 SE 29 39 16 21 1000.4 1000.4 109.5
03/06:30pm 24.7 27.0 24.7 100 0.0 SE 24 29 13 16 1000.1 1000.1 100.6
03/06:00pm 25.3 26.3 25.3 100 0.0 E 30 47 16 25 1000.1 1000.1 85.4
03/05:30pm 25.1 29.4 25.1 100 0.0 NE 14 37 8 20 999.8 999.8 76.2
03/05:00pm 24.6 29.2 24.6 100 0.0 NE 12 18 7 10 999.9 999.9 70.9
03/04:30pm 25.3 30.1 25.3 100 0.0 ESE 14 26 8 14 999.1 999.1 59.5
03/04:00pm 26.1 29.4 25.6 97 0.4 ENE 21 29 11 16 999.2 999.2 44.5
03/03:30pm 26.9 31.0 26.0 95 0.7 ENE 29 37 16 20 999.0 999.0 44.5
03/03:00pm 26.9 31.2 26.4 97 0.4 ENE 31 37 17 20 999.2 999.2 44.5
03/02:30pm 27.3 32.3 26.4 96 0.7 ENE 28 34 15 18 999.6 999.6 44.5
03/02:00pm 27.5 33.1 26.8 97 0.5 ENE 26 37 14 20 999.9 999.9 44.5
03/01:30pm 27.1 33.6 26.6 97 0.4 SE 9 23 5 13 1000.3 1000.3 44.5
03/01:00pm 25.8 30.6 25.8 100 0.0 SSE 13 16 7 9 1000.6 1000.6 44.5
03/12:30pm 25.9 30.7 25.6 99 0.2 SSE 13 18 7 10 1001.2 1001.2 44.2
03/12:00pm 25.4 30.8 25.4 100 0.0 NNW 6 13 4 7 1001.5 1001.5 39.1
03/11:30am 24.4 29.4 24.4 100 0.0 S 10 13 5 7 1001.6 1001.6 38.1
03/11:00am 24.1 29.2 24.1 100 0.0 NW 5 8 3 4 1001.5 1001.5 23.4
03/10:30am 24.7 27.8 24.5 100 0.1 NW 18 26 10 14 1001.8 1001.8 14.5
03/10:00am 25.8 29.2 25.8 100 0.0 ENE 23 39 12 21 1001.4 1001.4 1.0
03/09:30am 25.4 30.8 25.4 100 0.0 SE 13 23 7 13 1001.6 1001.6 0.8
03/09:00am 24.4 28.6 24.4 100 0.0 SE 14 18 8 10 1001.7 1001.7 0.0
03/08:30am 24.3 25.2 24.3 100 0.0 SE 29 45 15 24 1002.0 1002.0 178.1
03/08:00am 24.3 28.0 24.3 100 0.0 ESE 16 21 8 11 1001.7 1001.7 175.3
03/07:30am 24.6 27.5 24.6 100 0.0 SE 20 29 11 16 1001.7 1001.7 167.2
03/07:00am 24.3 24.8 24.3 100 0.0 E 32 45 17 24 1001.6 1001.6 160.3
03/06:30am 23.8 25.0 23.8 100 0.0 SE 32 42 18 23 1000.4 1000.4 158.8
03/06:00am 23.1 22.9 23.1 100 0.0 SE 33 45 18 24 1000.3 1000.3 158.5
03/05:30am 22.9 23.7 22.9 100 -0.0 SE 25 32 13 17 1000.1 1000.1 157.5
03/05:00am 22.7 23.0 22.7 100 0.0 SSE 27 34 15 18 999.9 999.9 152.4
03/04:30am 22.3 25.3 22.3 100 -0.0 SSE 13 21 7 11 1000.2 1000.2 149.9
03/04:00am 22.5 24.0 22.5 100 -0.0 SSE 22 29 12 16 1000.3 1000.3 140.0
03/03:30am 22.6 24.3 22.4 99 0.1 SSE 17 23 9 13 1000.3 1000.3 135.7
03/03:00am 22.6 22.4 22.3 98 0.2 SE 28 39 15 21 1000.4 1000.4 132.4
03/02:30am 22.7 21.7 22.4 98 0.2 SE 34 50 19 27 1000.6 1000.6 130.1
03/02:00am 22.9 21.3 22.6 98 0.2 SE 35 42 19 23 1000.9 1000.9 128.0
03/01:30am 23.1 22.4 22.8 98 0.2 SE 34 39 18 21 1001.5 1001.5 125.5
03/01:00am 23.2 23.3 22.9 98 0.2 SE 30 37 16 20 1002.1 1002.1 122.7
03/12:30am 23.2 24.2 22.9 98 0.2 SE 26 34 14 18 1002.4 1002.4 122.2
03/12:00am 23.3 24.3 23.1 99 0.1 SE 26 37 14 20 1002.6 1002.6 121.4
 


NOTE: The apparent temperature specified in the table above is calculated using both the Heat Index and Steadman method. This differs to the Bureau of Meteorology's calculation which uses the Steadman method alone.